Hauptseite
METAR-TAF:

METAR-TAF

Flughäfen :

Wunstorf, Deutschland

Fliegerhorst Wunstorf

Breite: 52-27N, Länge: 009-26E, Höhe: 57 m

Beobachtung

Neuester Wetterbericht von vor 38 Minuten, um 09:20 UTC
Wind 7 kt aus Südost
Temperatur 23°C
Luftfeuchtigkeit 44%
Luftdruck 1030 hPa
Sichtweite 10 km oder mehr
Leicht bewölkt in der Höhe von 36000 ft

METAR: ETNW 190920Z 14007KT 9999 FEW360 23/10 Q1030 BLU+BLU+

Zeit: 11:58 (09:58 UTC)

Prognose

Neuester Wetterbericht von vor 5 Stunden und 38 Minuten, um 04:20 UTC
Gültige Prognose vom 19 um 05 UTC bis 20 um 05 UTC
Wind 5 kt aus Ost
Sichtweite 10 km oder mehr
Leicht bewölkt in der Höhe von 30000 ft

TAF: ETNW 190420Z 1905/2005 10005KT 9999 NSW FEW300 BY ETGL

Wetterbeobachtungen und Prognosen von mehr als 4000 Flughäfen (METAR und TAF Bericht).

Die verfügbaren Stationen werden durch gelbe und rote Markierungen auf der Karte dargestellt.

Führen Sie die Maus auf sie, um den Namen der Station zu sehen.

Darauf klicken, um die Beobachtung von Wetterbeobachtungen und Prognosen zu sehen.

Um die Karte zu ändern : klicken Sie auf den grünen Tasten mit einem schwarzen Kreuz Zum Vergrößern, auf den grünen Button mit einem Gedankenstrich zu verkleinern, oder auf die grünen Pfeile für benachbarte Karten.


METAR-TAF: